createdAt,value
2022-12-25T00:01:23.703Z,8.85
2022-12-25T00:03:51.414Z,8.93
2022-12-25T00:06:19.084Z,9.25
2022-12-25T00:08:46.323Z,7.30
2022-12-25T00:11:16.358Z,10.35
2022-12-25T00:13:43.872Z,10.10
2022-12-25T00:16:15.751Z,9.23
2022-12-25T00:18:42.609Z,9.70
2022-12-25T00:21:10.960Z,11.15
2022-12-25T00:23:38.260Z,10.45
2022-12-25T00:26:11.020Z,10.38
2022-12-25T00:28:38.957Z,7.97
2022-12-25T00:31:17.094Z,10.80
2022-12-25T00:33:45.998Z,10.73
2022-12-25T00:36:15.343Z,11.13
2022-12-25T00:38:42.853Z,8.40
2022-12-25T00:41:38.706Z,10.18
2022-12-25T00:44:06.683Z,9.70
2022-12-25T00:46:33.545Z,9.95
2022-12-25T00:49:00.796Z,9.35
2022-12-25T00:51:27.745Z,9.15
2022-12-25T00:53:54.520Z,9.68
2022-12-25T00:56:21.380Z,9.87
2022-12-25T00:58:48.298Z,9.18
2022-12-25T01:01:15.251Z,8.57
2022-12-25T01:03:42.323Z,9.13
2022-12-25T01:06:11.096Z,8.50
2022-12-25T01:08:39.481Z,9.47
2022-12-25T01:11:08.001Z,8.98
2022-12-25T01:13:36.839Z,9.65
2022-12-25T01:16:11.217Z,9.38
2022-12-25T01:18:38.714Z,9.50
2022-12-25T01:21:13.488Z,9.30
2022-12-25T01:23:40.312Z,9.18
2022-12-25T01:26:08.928Z,8.90
2022-12-25T01:28:36.504Z,8.27
2022-12-25T01:31:03.953Z,9.50
2022-12-25T01:33:31.101Z,8.63
2022-12-25T01:35:58.656Z,9.32
2022-12-25T01:38:25.566Z,9.48
2022-12-25T01:40:52.342Z,9.18
2022-12-25T01:43:27.065Z,9.05
2022-12-25T01:45:54.317Z,8.50
2022-12-25T01:48:30.483Z,10.25
2022-12-25T01:51:26.312Z,9.73
2022-12-25T01:53:53.332Z,8.18
2022-12-25T01:56:20.593Z,8.88
2022-12-25T01:58:47.799Z,7.87
2022-12-25T02:01:14.812Z,8.63
2022-12-25T02:03:42.518Z,7.97
2022-12-25T02:06:09.876Z,8.85
2022-12-25T02:08:36.840Z,9.20
2022-12-25T02:11:03.724Z,8.73
2022-12-25T02:13:30.820Z,9.70
2022-12-25T02:16:10.987Z,9.30
2022-12-25T02:18:46.307Z,9.95
2022-12-25T02:21:46.706Z,9.55
2022-12-25T02:24:32.001Z,9.60
2022-12-25T02:27:21.573Z,9.68
2022-12-25T02:30:01.746Z,9.07
2022-12-25T02:32:52.899Z,9.82
2022-12-25T02:35:31.108Z,8.20
2022-12-25T02:38:15.722Z,8.83
2022-12-25T02:40:51.855Z,8.63
2022-12-25T02:43:43.120Z,9.32
2022-12-25T02:46:32.461Z,9.70
2022-12-25T02:49:24.552Z,9.63
2022-12-25T02:52:15.968Z,8.33
2022-12-25T02:55:06.557Z,9.52
2022-12-25T02:57:58.915Z,10.23
2022-12-25T03:00:44.985Z,9.93
2022-12-25T03:03:32.070Z,9.98
2022-12-25T03:06:41.156Z,9.27
2022-12-25T03:09:46.043Z,9.88
2022-12-25T03:12:21.448Z,8.70
2022-12-25T03:15:07.055Z,10.55
2022-12-25T03:17:34.718Z,7.63
2022-12-25T03:20:20.169Z,8.90
2022-12-25T03:23:06.667Z,8.27
2022-12-25T03:25:53.737Z,10.02
2022-12-25T03:28:21.294Z,8.95
2022-12-25T03:31:14.049Z,7.53
2022-12-25T03:34:05.583Z,10.63
2022-12-25T03:37:09.637Z,9.77
2022-12-25T03:40:23.316Z,10.23
2022-12-25T03:43:18.391Z,9.85
2022-12-25T03:46:08.390Z,9.88
2022-12-25T03:48:58.886Z,9.20
2022-12-25T03:51:51.174Z,9.52
2022-12-25T03:54:42.566Z,8.43
2022-12-25T03:57:28.856Z,7.78
2022-12-25T04:00:14.913Z,10.02
2022-12-25T04:03:00.380Z,10.50
2022-12-25T04:05:45.779Z,8.95
2022-12-25T04:08:31.202Z,9.02
2022-12-25T04:11:18.312Z,8.82
2022-12-25T04:14:03.847Z,9.43
2022-12-25T04:16:49.328Z,8.77
2022-12-25T04:19:34.589Z,9.30
2022-12-25T04:22:19.943Z,9.30
2022-12-25T04:25:05.523Z,8.88
2022-12-25T04:27:50.950Z,8.45
2022-12-25T04:30:36.871Z,8.40
2022-12-25T04:33:22.276Z,7.97
2022-12-25T04:36:08.571Z,7.75
2022-12-25T04:38:36.526Z,7.68
2022-12-25T04:41:04.041Z,7.60
2022-12-25T04:43:30.928Z,8.50
2022-12-25T04:45:59.717Z,7.70
2022-12-25T04:48:27.854Z,7.22
2022-12-25T04:50:55.104Z,5.55
2022-12-25T04:53:22.493Z,6.72
2022-12-25T04:55:49.331Z,6.80
2022-12-25T04:58:16.096Z,7.35
2022-12-25T05:00:42.859Z,7.50
2022-12-25T05:03:09.792Z,7.05
2022-12-25T05:05:39.773Z,7.13
2022-12-25T05:08:06.697Z,6.53
2022-12-25T05:10:33.495Z,6.07
2022-12-25T05:13:00.255Z,5.35
2022-12-25T05:15:27.061Z,6.50
2022-12-25T05:17:53.812Z,6.20
2022-12-25T05:20:20.702Z,5.53
2022-12-25T05:22:47.536Z,5.80
2022-12-25T05:25:14.379Z,6.20
2022-12-25T05:27:41.255Z,4.90
2022-12-25T05:30:08.766Z,4.82
2022-12-25T05:32:35.560Z,5.50
2022-12-25T05:35:02.429Z,5.10
2022-12-25T05:37:29.231Z,4.88
2022-12-25T05:39:56.057Z,5.57
2022-12-25T05:42:22.838Z,5.15
2022-12-25T05:44:49.607Z,5.50
2022-12-25T05:47:16.492Z,5.10
2022-12-25T05:49:43.449Z,3.70
2022-12-25T05:52:10.416Z,3.50
2022-12-25T05:54:37.294Z,4.50
2022-12-25T05:57:04.249Z,4.30
2022-12-25T05:59:32.368Z,5.03
2022-12-25T06:01:59.848Z,4.78
2022-12-25T06:04:26.915Z,4.35
2022-12-25T06:06:53.794Z,3.97
2022-12-25T06:09:20.590Z,3.97
2022-12-25T06:11:47.454Z,4.28
2022-12-25T06:14:15.539Z,4.47
2022-12-25T06:16:42.808Z,4.57
2022-12-25T06:19:09.666Z,4.25
2022-12-25T06:21:36.763Z,4.47
2022-12-25T06:24:03.836Z,2.95
2022-12-25T06:26:30.574Z,3.50
2022-12-25T06:28:57.409Z,4.68
2022-12-25T06:31:24.414Z,4.10
2022-12-25T06:33:51.290Z,4.17
2022-12-25T06:36:23.770Z,4.40
2022-12-25T06:38:51.669Z,4.97
2022-12-25T06:41:25.368Z,5.15
2022-12-25T06:43:54.803Z,4.55
2022-12-25T06:46:24.653Z,4.70
2022-12-25T06:48:53.347Z,4.55
2022-12-25T06:51:22.481Z,3.10
2022-12-25T06:53:51.144Z,3.88
2022-12-25T06:56:21.354Z,4.32
2022-12-25T06:58:51.865Z,4.80
2022-12-25T07:01:44.033Z,4.05
2022-12-25T07:04:36.781Z,4.53
2022-12-25T07:07:09.058Z,4.47
2022-12-25T07:09:39.053Z,4.03
2022-12-25T07:12:15.334Z,3.30
2022-12-25T07:14:44.313Z,4.03
2022-12-25T07:17:11.805Z,4.07
2022-12-25T07:19:44.706Z,4.30
2022-12-25T07:22:12.457Z,4.15
2022-12-25T07:24:39.363Z,4.13
2022-12-25T07:27:06.511Z,3.85
2022-12-25T07:29:33.311Z,4.60
2022-12-25T07:32:00.662Z,4.53
2022-12-25T07:34:27.597Z,4.20
2022-12-25T07:36:55.105Z,4.60
2022-12-25T07:39:22.129Z,4.40
2022-12-25T07:41:49.400Z,4.13
2022-12-25T07:44:16.546Z,4.47
2022-12-25T07:46:43.772Z,4.53
2022-12-25T07:49:11.569Z,4.97
2022-12-25T07:51:39.062Z,5.03
2022-12-25T07:54:06.130Z,4.82
2022-12-25T07:56:33.256Z,4.10
2022-12-25T07:59:00.262Z,3.92
2022-12-25T08:01:28.395Z,3.90
2022-12-25T08:04:00.857Z,4.93
2022-12-25T08:06:31.855Z,4.85
2022-12-25T08:09:09.935Z,4.22
2022-12-25T08:11:37.461Z,4.78
2022-12-25T08:14:08.941Z,4.70
2022-12-25T08:16:36.268Z,5.15
2022-12-25T08:19:03.236Z,4.32
2022-12-25T08:21:30.270Z,4.95
2022-12-25T08:23:57.181Z,4.30
2022-12-25T08:26:24.106Z,5.03
2022-12-25T08:28:51.741Z,4.28
2022-12-25T08:31:18.778Z,5.28
2022-12-25T08:33:46.567Z,5.10
2022-12-25T08:36:13.762Z,5.38
2022-12-25T08:38:41.280Z,5.10
2022-12-25T08:41:08.935Z,5.53
2022-12-25T08:43:36.092Z,5.20
2022-12-25T08:46:03.294Z,5.75
2022-12-25T08:48:30.340Z,6.10
2022-12-25T08:50:57.645Z,5.90
2022-12-25T08:53:24.776Z,6.35
2022-12-25T08:56:04.504Z,6.47
2022-12-25T08:58:31.762Z,6.00
2022-12-25T09:00:58.702Z,6.13
2022-12-25T09:03:26.328Z,5.80
2022-12-25T09:05:54.044Z,6.05
2022-12-25T09:08:21.916Z,6.30
2022-12-25T09:10:49.483Z,6.53
2022-12-25T09:13:16.342Z,6.38
2022-12-25T09:15:43.280Z,5.90
2022-12-25T09:18:10.374Z,5.57
2022-12-25T09:20:37.187Z,6.03
2022-12-25T09:23:08.474Z,6.35
2022-12-25T09:25:38.632Z,6.05
2022-12-25T09:28:05.473Z,6.23
2022-12-25T09:30:32.379Z,6.18
2022-12-25T09:32:59.314Z,6.30
2022-12-25T09:35:26.188Z,6.55
2022-12-25T09:37:53.121Z,5.45
2022-12-25T09:40:21.579Z,5.83
2022-12-25T09:42:49.279Z,5.85
2022-12-25T09:45:28.524Z,6.00
2022-12-25T09:47:57.162Z,5.82
2022-12-25T09:50:50.083Z,5.85
2022-12-25T09:53:24.130Z,5.40
2022-12-25T09:56:26.699Z,4.35
2022-12-25T09:58:54.588Z,5.20
2022-12-25T10:01:44.726Z,5.70
2022-12-25T10:04:40.791Z,5.35
2022-12-25T10:07:23.567Z,5.67
2022-12-25T10:10:12.461Z,5.63
2022-12-25T10:12:56.816Z,5.57
2022-12-25T10:15:52.039Z,5.93
2022-12-25T10:18:39.721Z,6.03
2022-12-25T10:21:13.319Z,5.87
2022-12-25T10:24:26.014Z,6.00
2022-12-25T10:26:55.597Z,5.80
2022-12-25T10:29:22.790Z,6.25
2022-12-25T10:31:54.556Z,6.47
2022-12-25T10:34:22.356Z,6.50
2022-12-25T10:36:50.132Z,6.90
2022-12-25T10:39:22.514Z,6.97
2022-12-25T10:42:10.612Z,7.15
2022-12-25T10:44:37.409Z,7.43
2022-12-25T10:47:05.502Z,7.40
2022-12-25T10:49:38.548Z,6.38
2022-12-25T10:52:20.566Z,6.47
2022-12-25T10:54:47.443Z,6.45
2022-12-25T10:57:16.800Z,5.80
2022-12-25T10:59:57.003Z,6.10
2022-12-25T11:02:30.181Z,6.53
2022-12-25T11:05:10.069Z,5.97
2022-12-25T11:07:46.721Z,5.80
2022-12-25T11:10:32.329Z,6.38
2022-12-25T11:13:00.898Z,6.93
2022-12-25T11:15:32.311Z,5.90
2022-12-25T11:17:59.099Z,6.78
2022-12-25T11:20:26.085Z,6.40
2022-12-25T11:22:53.138Z,6.50
2022-12-25T11:25:25.916Z,6.83
2022-12-25T11:28:04.815Z,6.55
2022-12-25T11:30:33.730Z,6.55
2022-12-25T11:33:05.560Z,6.45
2022-12-25T11:35:47.681Z,6.70
2022-12-25T11:38:14.626Z,6.70
2022-12-25T11:40:51.395Z,6.45
2022-12-25T11:43:23.295Z,6.80
2022-12-25T11:46:16.733Z,7.22
2022-12-25T11:48:50.052Z,6.53
2022-12-25T11:51:18.624Z,5.80
2022-12-25T11:53:53.083Z,6.28
2022-12-25T11:56:28.128Z,6.05
2022-12-25T11:59:18.338Z,6.05
2022-12-25T12:02:05.772Z,5.85
2022-12-25T12:04:43.464Z,5.90
2022-12-25T12:07:18.746Z,6.20
2022-12-25T12:09:58.627Z,6.28
2022-12-25T12:13:12.693Z,6.20
2022-12-25T12:15:48.513Z,5.80
2022-12-25T12:18:27.338Z,5.87
2022-12-25T12:21:26.166Z,6.20
2022-12-25T12:24:16.936Z,6.00
2022-12-25T12:26:46.408Z,6.03
2022-12-25T12:29:29.214Z,6.75
2022-12-25T12:32:00.728Z,6.23
2022-12-25T12:34:46.009Z,6.47
2022-12-25T12:37:25.913Z,6.32
2022-12-25T12:39:54.649Z,6.88
2022-12-25T12:42:26.108Z,8.18
2022-12-25T12:44:56.289Z,7.47
2022-12-25T12:47:37.886Z,6.93
2022-12-25T12:50:06.053Z,6.90
2022-12-25T12:52:38.615Z,7.40
2022-12-25T12:55:07.274Z,7.50
2022-12-25T12:57:40.021Z,7.53
2022-12-25T13:00:18.970Z,7.80
2022-12-25T13:03:24.136Z,7.78
2022-12-25T13:05:58.000Z,8.80
2022-12-25T13:09:15.626Z,8.63
2022-12-25T13:11:44.187Z,7.63
2022-12-25T13:14:17.871Z,8.00
2022-12-25T13:16:47.734Z,8.07
2022-12-25T13:19:18.807Z,8.30
2022-12-25T13:21:57.094Z,8.18
2022-12-25T13:24:33.285Z,8.73
2022-12-25T13:27:01.203Z,9.23
2022-12-25T13:29:32.107Z,8.48
2022-12-25T13:32:01.225Z,7.75
2022-12-25T13:34:31.626Z,9.30
2022-12-25T13:37:08.854Z,8.20
2022-12-25T13:39:37.194Z,8.35
2022-12-25T13:42:06.888Z,8.13
2022-12-25T13:44:39.553Z,8.00
2022-12-25T13:47:27.741Z,7.72
2022-12-25T13:49:56.445Z,8.13
2022-12-25T13:52:43.456Z,8.30
2022-12-25T13:55:28.377Z,7.90
2022-12-25T13:58:01.798Z,7.95
2022-12-25T14:00:32.180Z,8.35
2022-12-25T14:02:59.637Z,8.40
2022-12-25T14:05:41.390Z,8.23
2022-12-25T14:08:20.694Z,8.73
2022-12-25T14:10:52.298Z,7.97
2022-12-25T14:13:22.341Z,8.52
2022-12-25T14:15:50.979Z,10.60
2022-12-25T14:18:19.583Z,9.13
2022-12-25T14:21:11.043Z,9.18
2022-12-25T14:23:49.799Z,8.48
2022-12-25T14:26:17.716Z,8.85
2022-12-25T14:28:51.735Z,9.17
2022-12-25T14:31:19.712Z,8.85
2022-12-25T14:33:46.882Z,8.95
2022-12-25T14:36:14.317Z,8.90
2022-12-25T14:38:44.046Z,9.10
2022-12-25T14:41:22.661Z,8.87
2022-12-25T14:43:55.245Z,9.25
2022-12-25T14:46:28.003Z,8.82
2022-12-25T14:49:23.936Z,9.38
2022-12-25T14:51:51.738Z,9.27
2022-12-25T14:54:23.308Z,9.07
2022-12-25T14:56:53.830Z,9.35
2022-12-25T14:59:25.120Z,9.90
2022-12-25T15:01:58.917Z,9.40
2022-12-25T15:04:27.607Z,9.55
2022-12-25T15:07:08.351Z,9.40
2022-12-25T15:09:36.258Z,10.73
2022-12-25T15:12:03.176Z,9.45
2022-12-25T15:14:31.559Z,10.10
2022-12-25T15:17:01.328Z,9.55
2022-12-25T15:19:36.971Z,9.90
2022-12-25T15:22:04.908Z,10.60
2022-12-25T15:24:31.751Z,10.13
2022-12-25T15:27:00.495Z,10.50
2022-12-25T15:30:00.129Z,10.50
2022-12-25T15:32:18.686Z,10.37
2022-12-25T15:34:47.008Z,10.95
2022-12-25T15:37:14.442Z,10.48
2022-12-25T15:39:41.482Z,10.90
2022-12-25T15:42:16.941Z,11.30
2022-12-25T15:44:45.149Z,11.23
2022-12-25T15:47:13.547Z,11.02
2022-12-25T15:49:40.475Z,11.13
2022-12-25T15:52:09.930Z,11.27
2022-12-25T15:54:36.814Z,11.23
2022-12-25T15:57:06.378Z,11.33
2022-12-25T15:59:33.549Z,10.77
2022-12-25T16:02:02.067Z,11.80
2022-12-25T16:04:31.393Z,11.40
2022-12-25T16:06:59.511Z,11.63
2022-12-25T16:09:27.562Z,11.30
2022-12-25T16:11:54.400Z,12.93
2022-12-25T16:14:21.840Z,12.77
2022-12-25T16:16:48.775Z,12.43
2022-12-25T16:19:15.598Z,11.90
2022-12-25T16:21:46.544Z,12.03
2022-12-25T16:24:14.140Z,12.02
2022-12-25T16:26:41.167Z,12.13
2022-12-25T16:29:08.320Z,11.68
2022-12-25T16:31:36.194Z,11.57
2022-12-25T16:34:03.584Z,12.20
2022-12-25T16:36:31.887Z,12.18
2022-12-25T16:38:58.727Z,11.95
2022-12-25T16:41:25.489Z,10.93
2022-12-25T16:43:52.340Z,11.95
2022-12-25T16:46:21.984Z,11.53
2022-12-25T16:48:49.096Z,11.75
2022-12-25T16:51:18.476Z,11.00
2022-12-25T16:53:45.431Z,10.68
2022-12-25T16:56:17.613Z,11.38
2022-12-25T16:58:48.673Z,11.50
2022-12-25T17:01:18.375Z,10.68
2022-12-25T17:03:46.201Z,11.02
2022-12-25T17:06:19.820Z,11.18
2022-12-25T17:08:47.298Z,11.57
2022-12-25T17:11:14.852Z,12.00
2022-12-25T17:13:45.476Z,11.82
2022-12-25T17:16:17.173Z,14.60
2022-12-25T17:18:44.625Z,13.93
2022-12-25T17:21:11.783Z,14.77
2022-12-25T17:23:38.925Z,13.83
2022-12-25T17:26:06.365Z,13.82
2022-12-25T17:28:34.649Z,16.67
2022-12-25T17:31:06.377Z,15.38
2022-12-25T17:33:36.173Z,14.27
2022-12-25T17:36:04.402Z,14.90
2022-12-25T17:38:32.455Z,14.73
2022-12-25T17:41:00.343Z,16.77
2022-12-25T17:43:27.440Z,14.98
2022-12-25T17:45:54.860Z,15.27
2022-12-25T17:48:21.852Z,14.17
2022-12-25T17:50:48.763Z,14.57
2022-12-25T17:53:15.796Z,15.23
2022-12-25T17:55:43.034Z,15.18
2022-12-25T17:58:10.527Z,14.90
2022-12-25T18:00:37.553Z,14.87
2022-12-25T18:03:11.291Z,16.02
2022-12-25T18:05:38.867Z,16.30
2022-12-25T18:08:05.703Z,15.75
2022-12-25T18:10:38.721Z,15.60
2022-12-25T18:13:05.672Z,16.30
2022-12-25T18:15:35.923Z,15.95
2022-12-25T18:18:02.779Z,16.75
2022-12-25T18:20:35.867Z,15.82
2022-12-25T18:23:06.365Z,16.60
2022-12-25T18:25:33.837Z,15.53
2022-12-25T18:28:02.698Z,16.02
2022-12-25T18:30:30.122Z,15.73
2022-12-25T18:32:56.949Z,15.27
2022-12-25T18:35:30.299Z,18.05
2022-12-25T18:38:04.856Z,17.67
2022-12-25T18:40:34.546Z,17.10
2022-12-25T18:43:03.595Z,17.25
2022-12-25T18:45:30.728Z,18.08
2022-12-25T18:47:58.143Z,16.73
2022-12-25T18:50:26.185Z,16.83
2022-12-25T18:52:53.052Z,23.70
2022-12-25T18:55:19.988Z,19.55
2022-12-25T18:57:47.560Z,19.77
2022-12-25T19:00:14.626Z,19.95
2022-12-25T19:02:42.061Z,17.90
2022-12-25T19:05:09.400Z,19.48
2022-12-25T19:07:38.386Z,17.02
2022-12-25T19:10:07.792Z,16.35
2022-12-25T19:12:34.921Z,17.00
2022-12-25T19:15:01.952Z,16.57
2022-12-25T19:17:31.765Z,16.88
2022-12-25T19:19:59.030Z,16.05
2022-12-25T19:22:26.006Z,16.08
2022-12-25T19:24:52.942Z,15.40
2022-12-25T19:27:19.900Z,15.27
2022-12-25T19:29:46.797Z,16.05
2022-12-25T19:32:13.582Z,20.63
2022-12-25T19:34:40.387Z,15.35
2022-12-25T19:37:07.568Z,14.98
2022-12-25T19:39:34.477Z,15.37
2022-12-25T19:42:01.288Z,17.50
2022-12-25T19:44:28.118Z,17.70
2022-12-25T19:46:55.807Z,15.50
2022-12-25T19:49:22.751Z,15.50
2022-12-25T19:51:49.522Z,19.47
2022-12-25T19:54:17.327Z,16.70
2022-12-25T19:56:44.183Z,17.48
2022-12-25T19:59:12.619Z,17.10
2022-12-25T20:01:39.625Z,16.48
2022-12-25T20:04:10.612Z,16.10
2022-12-25T20:06:39.186Z,14.77
2022-12-25T20:09:15.076Z,15.98
2022-12-25T20:11:43.192Z,16.75
2022-12-25T20:14:13.070Z,16.42
2022-12-25T20:16:40.595Z,16.07
2022-12-25T20:19:07.880Z,15.52
2022-12-25T20:21:34.708Z,15.25
2022-12-25T20:24:01.855Z,15.23
2022-12-25T20:26:30.689Z,14.75
2022-12-25T20:28:58.028Z,15.50
2022-12-25T20:31:30.523Z,14.95
2022-12-25T20:34:01.004Z,15.38
2022-12-25T20:36:32.803Z,26.45
2022-12-25T20:39:03.302Z,47.30
2022-12-25T20:41:30.548Z,16.13
2022-12-25T20:43:57.732Z,21.50
2022-12-25T20:46:25.653Z,16.80
2022-12-25T20:48:53.083Z,17.27
2022-12-25T20:51:22.854Z,19.92
2022-12-25T20:53:50.123Z,24.27
2022-12-25T20:56:19.079Z,15.85
2022-12-25T20:58:46.041Z,15.32
2022-12-25T21:01:17.497Z,20.20
2022-12-25T21:03:45.055Z,14.88
2022-12-25T21:06:12.736Z,15.23
2022-12-25T21:08:41.097Z,13.48
2022-12-25T21:11:09.199Z,16.13
2022-12-25T21:13:40.453Z,14.63
2022-12-25T21:16:13.919Z,16.63
2022-12-25T21:18:40.867Z,15.37
2022-12-25T21:21:07.993Z,15.00
2022-12-25T21:23:37.381Z,15.20
2022-12-25T21:26:20.412Z,14.98
2022-12-25T21:28:52.929Z,14.80
2022-12-25T21:31:20.759Z,13.20
2022-12-25T21:33:53.032Z,14.52
2022-12-25T21:36:22.880Z,14.48
2022-12-25T21:39:05.896Z,14.70
2022-12-25T21:41:34.388Z,14.40
2022-12-25T21:44:01.443Z,13.13
2022-12-25T21:46:29.143Z,13.25
2022-12-25T21:48:57.167Z,10.90
2022-12-25T21:51:46.114Z,10.75
2022-12-25T21:54:13.855Z,11.90
2022-12-25T21:56:44.986Z,12.50
2022-12-25T21:59:16.016Z,12.40
2022-12-25T22:01:43.690Z,12.10
2022-12-25T22:04:11.810Z,11.77
2022-12-25T22:06:57.582Z,12.43
2022-12-25T22:09:24.527Z,12.43
2022-12-25T22:12:10.296Z,12.30
2022-12-25T22:14:54.366Z,13.10
2022-12-25T22:17:55.654Z,13.63
2022-12-25T22:20:30.820Z,10.70
2022-12-25T22:22:58.653Z,12.17
2022-12-25T22:25:26.219Z,12.15
2022-12-25T22:27:53.388Z,12.20
2022-12-25T22:30:22.761Z,12.05
2022-12-25T22:32:50.404Z,11.27
2022-12-25T22:35:17.976Z,11.93
2022-12-25T22:37:45.083Z,11.75
2022-12-25T22:40:15.359Z,11.65
2022-12-25T22:42:42.628Z,11.98
2022-12-25T22:45:10.569Z,11.75
2022-12-25T22:47:37.711Z,12.60
2022-12-25T22:50:05.103Z,11.45
2022-12-25T22:52:31.985Z,11.82
2022-12-25T22:54:58.886Z,11.57
2022-12-25T22:57:25.700Z,12.13
2022-12-25T22:59:53.121Z,12.13
2022-12-25T23:02:20.925Z,12.85
2022-12-25T23:04:48.303Z,9.52
2022-12-25T23:07:15.645Z,10.52
2022-12-25T23:09:43.903Z,11.25
2022-12-25T23:12:31.444Z,11.30
2022-12-25T23:14:58.371Z,10.23
2022-12-25T23:17:44.223Z,10.65
2022-12-25T23:20:32.827Z,10.60
2022-12-25T23:23:18.269Z,10.07
2022-12-25T23:26:03.982Z,10.13
2022-12-25T23:28:49.332Z,9.70
2022-12-25T23:31:16.265Z,10.50
2022-12-25T23:33:43.017Z,9.95
2022-12-25T23:36:09.966Z,9.55
2022-12-25T23:38:36.744Z,10.30
2022-12-25T23:41:03.516Z,9.70
2022-12-25T23:43:30.589Z,9.20
2022-12-25T23:45:57.404Z,10.15
2022-12-25T23:48:24.221Z,9.75
2022-12-25T23:50:51.126Z,10.50
2022-12-25T23:53:17.923Z,9.98
2022-12-25T23:55:48.672Z,9.73
2022-12-25T23:58:18.421Z,9.80
